sensor_id;sensor_type;location;lat;lon;timestamp;pressure;altitude;pressure_sealevel;temperature;humidity
24762;BME280;12865;51.934;10.330;2023-11-19T00:01:53;98519.22;;;6.91;100.00
24762;BME280;12865;51.934;10.330;2023-11-19T00:04:39;98514.16;;;6.88;100.00
24762;BME280;12865;51.934;10.330;2023-11-19T00:07:25;98509.16;;;6.85;100.00
24762;BME280;12865;51.934;10.330;2023-11-19T00:10:12;98513.88;;;6.82;100.00
24762;BME280;12865;51.934;10.330;2023-11-19T00:12:58;98504.28;;;6.90;100.00
24762;BME280;12865;51.934;10.330;2023-11-19T00:15:44;98495.38;;;6.91;100.00
24762;BME280;12865;51.934;10.330;2023-11-19T00:18:30;98497.72;;;6.94;100.00
24762;BME280;12865;51.934;10.330;2023-11-19T00:21:16;98500.25;;;6.96;100.00
24762;BME280;12865;51.934;10.330;2023-11-19T00:24:02;98476.44;;;7.05;100.00
24762;BME280;12865;51.934;10.330;2023-11-19T00:26:47;98485.63;;;7.01;100.00
24762;BME280;12865;51.934;10.330;2023-11-19T00:29:33;98472.38;;;7.01;100.00
24762;BME280;12865;51.934;10.330;2023-11-19T00:32:19;98457.75;;;7.07;100.00
24762;BME280;12865;51.934;10.330;2023-11-19T00:35:05;98453.72;;;7.13;100.00
24762;BME280;12865;51.934;10.330;2023-11-19T00:37:51;98441.69;;;7.08;100.00
24762;BME280;12865;51.934;10.330;2023-11-19T00:40:39;98441.44;;;7.12;100.00
24762;BME280;12865;51.934;10.330;2023-11-19T00:43:26;98422.06;;;7.11;100.00
24762;BME280;12865;51.934;10.330;2023-11-19T00:46:12;98403.50;;;7.11;100.00
24762;BME280;12865;51.934;10.330;2023-11-19T00:48:59;98425.53;;;7.12;100.00
24762;BME280;12865;51.934;10.330;2023-11-19T00:51:46;98420.94;;;7.14;100.00
24762;BME280;12865;51.934;10.330;2023-11-19T00:54:32;98416.91;;;7.19;100.00
24762;BME280;12865;51.934;10.330;2023-11-19T00:57:18;98408.53;;;7.24;100.00
24762;BME280;12865;51.934;10.330;2023-11-19T01:00:05;98407.00;;;7.21;100.00
24762;BME280;12865;51.934;10.330;2023-11-19T01:03:03;98408.25;;;7.27;100.00
24762;BME280;12865;51.934;10.330;2023-11-19T01:05:49;98398.06;;;7.22;100.00
24762;BME280;12865;51.934;10.330;2023-11-19T01:08:34;98407.84;;;7.22;100.00
24762;BME280;12865;51.934;10.330;2023-11-19T01:11:24;98391.78;;;7.23;100.00
24762;BME280;12865;51.934;10.330;2023-11-19T01:14:09;98406.59;;;7.26;100.00
24762;BME280;12865;51.934;10.330;2023-11-19T01:16:55;98390.97;;;7.42;100.00
24762;BME280;12865;51.934;10.330;2023-11-19T01:19:41;98384.66;;;7.43;100.00
24762;BME280;12865;51.934;10.330;2023-11-19T01:22:26;98377.97;;;7.48;100.00
24762;BME280;12865;51.934;10.330;2023-11-19T01:25:12;98344.59;;;7.56;100.00
24762;BME280;12865;51.934;10.330;2023-11-19T01:27:58;98382.72;;;7.55;100.00
24762;BME280;12865;51.934;10.330;2023-11-19T01:30:43;98376.56;;;7.54;100.00
24762;BME280;12865;51.934;10.330;2023-11-19T01:33:29;98376.84;;;7.61;100.00
24762;BME280;12865;51.934;10.330;2023-11-19T01:36:15;98361.19;;;7.67;100.00
24762;BME280;12865;51.934;10.330;2023-11-19T01:39:01;98332.28;;;7.64;100.00
24762;BME280;12865;51.934;10.330;2023-11-19T01:41:47;98332.84;;;7.68;100.00
24762;BME280;12865;51.934;10.330;2023-11-19T01:44:32;98329.63;;;7.64;100.00
24762;BME280;12865;51.934;10.330;2023-11-19T01:47:19;98341.06;;;7.65;100.00
24762;BME280;12865;51.934;10.330;2023-11-19T01:50:06;98360.91;;;7.70;100.00
24762;BME280;12865;51.934;10.330;2023-11-19T01:52:54;98367.59;;;7.74;100.00
24762;BME280;12865;51.934;10.330;2023-11-19T01:55:39;98368.97;;;7.78;100.00
24762;BME280;12865;51.934;10.330;2023-11-19T01:58:26;98360.72;;;7.91;100.00
24762;BME280;12865;51.934;10.330;2023-11-19T02:01:13;98361.13;;;7.86;100.00
24762;BME280;12865;51.934;10.330;2023-11-19T02:03:58;98350.25;;;7.89;100.00
24762;BME280;12865;51.934;10.330;2023-11-19T02:06:45;98338.22;;;7.85;100.00
24762;BME280;12865;51.934;10.330;2023-11-19T02:09:33;98348.00;;;7.85;100.00
24762;BME280;12865;51.934;10.330;2023-11-19T02:12:19;98338.28;;;7.76;100.00
24762;BME280;12865;51.934;10.330;2023-11-19T02:15:06;98334.06;;;7.83;100.00
24762;BME280;12865;51.934;10.330;2023-11-19T02:17:52;98326.94;;;7.83;100.00
24762;BME280;12865;51.934;10.330;2023-11-19T02:20:38;98322.44;;;7.94;100.00
24762;BME280;12865;51.934;10.330;2023-11-19T02:23:25;98329.28;;;7.86;100.00
24762;BME280;12865;51.934;10.330;2023-11-19T02:26:33;98344.22;;;7.97;100.00
24762;BME280;12865;51.934;10.330;2023-11-19T02:29:22;98346.31;;;7.94;100.00
24762;BME280;12865;51.934;10.330;2023-11-19T02:32:07;98332.38;;;7.92;100.00
24762;BME280;12865;51.934;10.330;2023-11-19T02:37:22;98327.47;;;7.87;100.00
24762;BME280;12865;51.934;10.330;2023-11-19T02:40:08;98314.53;;;7.84;100.00
24762;BME280;12865;51.934;10.330;2023-11-19T02:42:54;98308.06;;;7.86;100.00
24762;BME280;12865;51.934;10.330;2023-11-19T02:45:41;98292.13;;;7.96;100.00
24762;BME280;12865;51.934;10.330;2023-11-19T02:48:27;98296.16;;;8.00;100.00
24762;BME280;12865;51.934;10.330;2023-11-19T02:51:13;98292.38;;;8.03;100.00
24762;BME280;12865;51.934;10.330;2023-11-19T02:53:59;98278.91;;;8.14;100.00
24762;BME280;12865;51.934;10.330;2023-11-19T02:56:44;98281.78;;;8.20;100.00
24762;BME280;12865;51.934;10.330;2023-11-19T02:59:33;98277.72;;;8.26;100.00
24762;BME280;12865;51.934;10.330;2023-11-19T03:02:24;98264.75;;;8.23;100.00
24762;BME280;12865;51.934;10.330;2023-11-19T03:05:19;98253.59;;;8.19;100.00
24762;BME280;12865;51.934;10.330;2023-11-19T03:08:05;98249.63;;;8.33;100.00
24762;BME280;12865;51.934;10.330;2023-11-19T03:10:50;98246.28;;;8.31;100.00
24762;BME280;12865;51.934;10.330;2023-11-19T03:13:36;98244.56;;;8.40;100.00
24762;BME280;12865;51.934;10.330;2023-11-19T03:16:22;98253.38;;;8.40;100.00
24762;BME280;12865;51.934;10.330;2023-11-19T03:19:07;98233.19;;;8.47;100.00
24762;BME280;12865;51.934;10.330;2023-11-19T03:21:53;98239.63;;;8.45;100.00
24762;BME280;12865;51.934;10.330;2023-11-19T03:24:39;98229.91;;;8.53;100.00
24762;BME280;12865;51.934;10.330;2023-11-19T03:27:25;98244.03;;;8.54;100.00
24762;BME280;12865;51.934;10.330;2023-11-19T03:30:11;98225.53;;;8.62;100.00
24762;BME280;12865;51.934;10.330;2023-11-19T03:32:57;98232.19;;;8.66;100.00
24762;BME280;12865;51.934;10.330;2023-11-19T03:35:43;98219.19;;;8.63;100.00
24762;BME280;12865;51.934;10.330;2023-11-19T03:38:28;98207.59;;;8.64;100.00
24762;BME280;12865;51.934;10.330;2023-11-19T03:41:15;98188.22;;;8.72;100.00
24762;BME280;12865;51.934;10.330;2023-11-19T03:44:01;98182.78;;;8.73;100.00
24762;BME280;12865;51.934;10.330;2023-11-19T03:46:47;98187.75;;;8.76;100.00
24762;BME280;12865;51.934;10.330;2023-11-19T03:49:32;98194.94;;;8.76;100.00
24762;BME280;12865;51.934;10.330;2023-11-19T03:52:18;98214.41;;;8.84;100.00
24762;BME280;12865;51.934;10.330;2023-11-19T03:55:04;98199.16;;;8.86;100.00
24762;BME280;12865;51.934;10.330;2023-11-19T03:57:51;98198.69;;;8.91;100.00
24762;BME280;12865;51.934;10.330;2023-11-19T04:00:36;98212.28;;;8.88;100.00
24762;BME280;12865;51.934;10.330;2023-11-19T04:03:22;98225.72;;;9.04;100.00
24762;BME280;12865;51.934;10.330;2023-11-19T04:06:08;98209.16;;;9.10;100.00
24762;BME280;12865;51.934;10.330;2023-11-19T04:08:53;98206.50;;;9.10;100.00
24762;BME280;12865;51.934;10.330;2023-11-19T04:11:39;98199.84;;;9.14;100.00
24762;BME280;12865;51.934;10.330;2023-11-19T04:14:25;98205.19;;;9.14;100.00
24762;BME280;12865;51.934;10.330;2023-11-19T04:17:11;98202.38;;;9.16;100.00
24762;BME280;12865;51.934;10.330;2023-11-19T04:19:56;98194.84;;;9.11;100.00
24762;BME280;12865;51.934;10.330;2023-11-19T04:22:42;98192.38;;;9.10;100.00
24762;BME280;12865;51.934;10.330;2023-11-19T04:25:28;98200.41;;;9.18;100.00
24762;BME280;12865;51.934;10.330;2023-11-19T04:28:14;98187.91;;;9.18;100.00
24762;BME280;12865;51.934;10.330;2023-11-19T04:31:00;98181.59;;;9.19;100.00
24762;BME280;12865;51.934;10.330;2023-11-19T04:33:45;98169.72;;;9.31;100.00
24762;BME280;12865;51.934;10.330;2023-11-19T04:36:33;98150.28;;;9.31;100.00
24762;BME280;12865;51.934;10.330;2023-11-19T04:39:19;98147.81;;;9.37;100.00
24762;BME280;12865;51.934;10.330;2023-11-19T04:42:05;98157.97;;;9.42;100.00
24762;BME280;12865;51.934;10.330;2023-11-19T04:44:51;98157.38;;;9.56;100.00
24762;BME280;12865;51.934;10.330;2023-11-19T04:47:37;98167.00;;;9.49;100.00
24762;BME280;12865;51.934;10.330;2023-11-19T04:50:24;98155.56;;;9.57;100.00
24762;BME280;12865;51.934;10.330;2023-11-19T04:53:12;98179.81;;;9.54;100.00
24762;BME280;12865;51.934;10.330;2023-11-19T04:55:58;98187.44;;;9.49;100.00
24762;BME280;12865;51.934;10.330;2023-11-19T04:58:44;98181.03;;;9.59;100.00
24762;BME280;12865;51.934;10.330;2023-11-19T05:01:30;98183.31;;;9.54;100.00
24762;BME280;12865;51.934;10.330;2023-11-19T05:04:16;98183.19;;;9.64;100.00
24762;BME280;12865;51.934;10.330;2023-11-19T05:07:01;98168.72;;;9.58;100.00
24762;BME280;12865;51.934;10.330;2023-11-19T05:09:47;98160.25;;;9.63;100.00
24762;BME280;12865;51.934;10.330;2023-11-19T05:12:33;98167.38;;;9.62;100.00
24762;BME280;12865;51.934;10.330;2023-11-19T05:15:18;98162.91;;;9.63;100.00
24762;BME280;12865;51.934;10.330;2023-11-19T05:18:04;98158.06;;;9.58;100.00
24762;BME280;12865;51.934;10.330;2023-11-19T05:20:50;98163.38;;;9.58;100.00
24762;BME280;12865;51.934;10.330;2023-11-19T05:23:36;98167.03;;;9.57;100.00
24762;BME280;12865;51.934;10.330;2023-11-19T05:26:22;98169.69;;;9.57;100.00
24762;BME280;12865;51.934;10.330;2023-11-19T05:29:08;98162.75;;;9.64;100.00
24762;BME280;12865;51.934;10.330;2023-11-19T05:31:54;98153.91;;;9.64;100.00
24762;BME280;12865;51.934;10.330;2023-11-19T05:34:40;98142.09;;;9.58;100.00
24762;BME280;12865;51.934;10.330;2023-11-19T05:37:27;98141.75;;;9.61;100.00
24762;BME280;12865;51.934;10.330;2023-11-19T05:40:12;98159.28;;;9.72;100.00
24762;BME280;12865;51.934;10.330;2023-11-19T05:43:01;98171.88;;;9.62;100.00
24762;BME280;12865;51.934;10.330;2023-11-19T05:45:47;98149.75;;;9.61;100.00
24762;BME280;12865;51.934;10.330;2023-11-19T05:48:33;98143.59;;;9.61;100.00
24762;BME280;12865;51.934;10.330;2023-11-19T05:51:18;98134.00;;;9.76;100.00
24762;BME280;12865;51.934;10.330;2023-11-19T05:54:08;98128.34;;;9.71;100.00
24762;BME280;12865;51.934;10.330;2023-11-19T05:56:55;98137.00;;;9.73;100.00
24762;BME280;12865;51.934;10.330;2023-11-19T05:59:41;98137.34;;;9.78;100.00
24762;BME280;12865;51.934;10.330;2023-11-19T06:02:26;98144.00;;;9.74;100.00
24762;BME280;12865;51.934;10.330;2023-11-19T06:05:12;98145.63;;;9.75;100.00
24762;BME280;12865;51.934;10.330;2023-11-19T06:07:58;98134.66;;;9.70;100.00
24762;BME280;12865;51.934;10.330;2023-11-19T06:10:44;98139.69;;;9.81;100.00
24762;BME280;12865;51.934;10.330;2023-11-19T06:13:31;98134.50;;;9.71;100.00
24762;BME280;12865;51.934;10.330;2023-11-19T06:16:17;98153.16;;;9.79;100.00
24762;BME280;12865;51.934;10.330;2023-11-19T06:19:03;98156.84;;;9.87;100.00
24762;BME280;12865;51.934;10.330;2023-11-19T06:21:48;98148.72;;;9.88;100.00
24762;BME280;12865;51.934;10.330;2023-11-19T06:24:35;98158.00;;;9.84;100.00
24762;BME280;12865;51.934;10.330;2023-11-19T06:27:21;98168.53;;;9.94;100.00
24762;BME280;12865;51.934;10.330;2023-11-19T06:30:08;98175.03;;;9.99;100.00
24762;BME280;12865;51.934;10.330;2023-11-19T06:32:54;98173.22;;;10.08;100.00
24762;BME280;12865;51.934;10.330;2023-11-19T06:35:40;98176.22;;;10.13;100.00
24762;BME280;12865;51.934;10.330;2023-11-19T06:38:26;98172.56;;;10.14;100.00
24762;BME280;12865;51.934;10.330;2023-11-19T06:41:11;98180.41;;;10.15;100.00
24762;BME280;12865;51.934;10.330;2023-11-19T06:43:57;98182.38;;;10.13;100.00
24762;BME280;12865;51.934;10.330;2023-11-19T06:46:43;98177.59;;;10.17;100.00
24762;BME280;12865;51.934;10.330;2023-11-19T06:49:28;98169.44;;;10.18;100.00
24762;BME280;12865;51.934;10.330;2023-11-19T06:52:16;98176.13;;;10.22;100.00
24762;BME280;12865;51.934;10.330;2023-11-19T06:55:01;98180.94;;;10.19;100.00
24762;BME280;12865;51.934;10.330;2023-11-19T06:57:47;98159.63;;;10.27;100.00
24762;BME280;12865;51.934;10.330;2023-11-19T07:00:33;98168.13;;;10.31;100.00
24762;BME280;12865;51.934;10.330;2023-11-19T07:03:20;98162.97;;;10.21;100.00
24762;BME280;12865;51.934;10.330;2023-11-19T07:06:06;98178.78;;;10.31;100.00
24762;BME280;12865;51.934;10.330;2023-11-19T07:08:52;98178.78;;;10.31;100.00
24762;BME280;12865;51.934;10.330;2023-11-19T07:11:41;98193.13;;;10.30;100.00
24762;BME280;12865;51.934;10.330;2023-11-19T07:14:27;98186.13;;;10.29;100.00
24762;BME280;12865;51.934;10.330;2023-11-19T07:17:14;98174.81;;;10.35;100.00
24762;BME280;12865;51.934;10.330;2023-11-19T07:20:00;98196.13;;;10.43;100.00
24762;BME280;12865;51.934;10.330;2023-11-19T07:22:46;98191.13;;;10.40;100.00
24762;BME280;12865;51.934;10.330;2023-11-19T07:25:32;98184.81;;;10.41;100.00
24762;BME280;12865;51.934;10.330;2023-11-19T07:28:17;98188.16;;;10.43;100.00
24762;BME280;12865;51.934;10.330;2023-11-19T07:31:03;98199.13;;;10.40;100.00
24762;BME280;12865;51.934;10.330;2023-11-19T07:33:49;98208.13;;;10.47;100.00
24762;BME280;12865;51.934;10.330;2023-11-19T07:36:35;98204.13;;;10.43;100.00
24762;BME280;12865;51.934;10.330;2023-11-19T07:39:21;98201.28;;;10.44;100.00
24762;BME280;12865;51.934;10.330;2023-11-19T07:42:07;98200.16;;;10.55;100.00
24762;BME280;12865;51.934;10.330;2023-11-19T07:44:52;98188.97;;;10.51;100.00
24762;BME280;12865;51.934;10.330;2023-11-19T07:47:40;98204.13;;;10.59;100.00
24762;BME280;12865;51.934;10.330;2023-11-19T07:50:26;98212.50;;;10.64;100.00
24762;BME280;12865;51.934;10.330;2023-11-19T07:53:12;98219.66;;;10.63;100.00
24762;BME280;12865;51.934;10.330;2023-11-19T07:55:58;98214.16;;;10.73;100.00
24762;BME280;12865;51.934;10.330;2023-11-19T07:58:46;98222.50;;;10.78;100.00
24762;BME280;12865;51.934;10.330;2023-11-19T08:01:33;98222.84;;;10.83;100.00
24762;BME280;12865;51.934;10.330;2023-11-19T08:04:19;98241.50;;;10.91;100.00
24762;BME280;12865;51.934;10.330;2023-11-19T08:07:04;98239.81;;;11.15;100.00
24762;BME280;12865;51.934;10.330;2023-11-19T08:09:50;98242.50;;;11.23;100.00
24762;BME280;12865;51.934;10.330;2023-11-19T08:12:36;98245.81;;;11.41;100.00
24762;BME280;12865;51.934;10.330;2023-11-19T08:15:22;98231.13;;;11.45;100.00
24762;BME280;12865;51.934;10.330;2023-11-19T08:18:08;98238.81;;;11.40;100.00
24762;BME280;12865;51.934;10.330;2023-11-19T08:20:54;98249.97;;;11.52;100.00
24762;BME280;12865;51.934;10.330;2023-11-19T08:23:41;98251.13;;;11.57;100.00
24762;BME280;12865;51.934;10.330;2023-11-19T08:26:27;98238.81;;;11.48;100.00
24762;BME280;12865;51.934;10.330;2023-11-19T08:29:13;98251.47;;;11.46;100.00
24762;BME280;12865;51.934;10.330;2023-11-19T08:32:02;98228.00;;;11.25;100.00
24762;BME280;12865;51.934;10.330;2023-11-19T08:34:49;98248.81;;;11.22;100.00
24762;BME280;12865;51.934;10.330;2023-11-19T08:37:34;98266.34;;;11.24;100.00
24762;BME280;12865;51.934;10.330;2023-11-19T08:40:22;98273.66;;;11.38;100.00
24762;BME280;12865;51.934;10.330;2023-11-19T08:43:08;98281.69;;;11.30;100.00
24762;BME280;12865;51.934;10.330;2023-11-19T08:45:54;98288.16;;;11.36;100.00
24762;BME280;12865;51.934;10.330;2023-11-19T08:48:39;98280.00;;;11.37;100.00
24762;BME280;12865;51.934;10.330;2023-11-19T08:51:25;98284.50;;;11.37;100.00
24762;BME280;12865;51.934;10.330;2023-11-19T08:54:11;98296.19;;;11.36;100.00
24762;BME280;12865;51.934;10.330;2023-11-19T08:56:58;98295.19;;;11.45;100.00
24762;BME280;12865;51.934;10.330;2023-11-19T08:59:44;98294.19;;;11.46;100.00
24762;BME280;12865;51.934;10.330;2023-11-19T09:02:31;98299.19;;;11.49;100.00
24762;BME280;12865;51.934;10.330;2023-11-19T09:05:17;98294.50;;;11.59;100.00
24762;BME280;12865;51.934;10.330;2023-11-19T09:08:04;98295.00;;;11.63;100.00
24762;BME280;12865;51.934;10.330;2023-11-19T09:10:49;98290.16;;;11.58;100.00
24762;BME280;12865;51.934;10.330;2023-11-19T09:13:35;98280.84;;;11.54;100.00
24762;BME280;12865;51.934;10.330;2023-11-19T09:16:21;98287.50;;;11.58;100.00
24762;BME280;12865;51.934;10.330;2023-11-19T09:19:07;98292.34;;;11.47;100.00
24762;BME280;12865;51.934;10.330;2023-11-19T09:21:53;98293.19;;;11.47;100.00
24762;BME280;12865;51.934;10.330;2023-11-19T09:24:39;98309.00;;;11.57;100.00
24762;BME280;12865;51.934;10.330;2023-11-19T09:27:24;98305.84;;;11.53;100.00
24762;BME280;12865;51.934;10.330;2023-11-19T09:30:11;98296.19;;;11.44;100.00
24762;BME280;12865;51.934;10.330;2023-11-19T09:32:56;98307.53;;;11.46;100.00
24762;BME280;12865;51.934;10.330;2023-11-19T09:35:42;98301.69;;;11.51;100.00
24762;BME280;12865;51.934;10.330;2023-11-19T09:38:28;98308.69;;;11.52;100.00
24762;BME280;12865;51.934;10.330;2023-11-19T09:41:13;98311.88;;;11.55;100.00
24762;BME280;12865;51.934;10.330;2023-11-19T09:43:59;98305.84;;;11.61;100.00
24762;BME280;12865;51.934;10.330;2023-11-19T09:46:45;98314.69;;;11.62;100.00
24762;BME280;12865;51.934;10.330;2023-11-19T09:49:33;98302.84;;;11.64;100.00
24762;BME280;12865;51.934;10.330;2023-11-19T09:52:20;98304.84;;;11.62;100.00
24762;BME280;12865;51.934;10.330;2023-11-19T09:55:06;98317.84;;;11.73;100.00
24762;BME280;12865;51.934;10.330;2023-11-19T09:57:52;98323.69;;;11.85;100.00
24762;BME280;12865;51.934;10.330;2023-11-19T10:00:38;98305.31;;;11.98;100.00
24762;BME280;12865;51.934;10.330;2023-11-19T10:03:26;98300.44;;;12.10;100.00
24762;BME280;12865;51.934;10.330;2023-11-19T10:06:14;98313.56;;;12.28;100.00
24762;BME280;12865;51.934;10.330;2023-11-19T10:09:00;98299.69;;;12.32;100.00
24762;BME280;12865;51.934;10.330;2023-11-19T10:11:46;98307.72;;;12.32;100.00
24762;BME280;12865;51.934;10.330;2023-11-19T10:14:32;98294.69;;;12.29;100.00
24762;BME280;12865;51.934;10.330;2023-11-19T10:17:22;98290.72;;;12.17;100.00
24762;BME280;12865;51.934;10.330;2023-11-19T10:20:13;98303.09;;;12.18;100.00
24762;BME280;12865;51.934;10.330;2023-11-19T10:22:59;98305.09;;;12.16;100.00
24762;BME280;12865;51.934;10.330;2023-11-19T10:25:45;98293.72;;;12.14;100.00
24762;BME280;12865;51.934;10.330;2023-11-19T10:28:40;98291.56;;;12.17;100.00
24762;BME280;12865;51.934;10.330;2023-11-19T10:31:29;98282.03;;;12.23;100.00
24762;BME280;12865;51.934;10.330;2023-11-19T10:34:25;98298.22;;;12.22;100.00
24762;BME280;12865;51.934;10.330;2023-11-19T10:37:27;98296.25;;;12.15;100.00
24762;BME280;12865;51.934;10.330;2023-11-19T10:40:15;98296.78;;;12.11;100.00
24762;BME280;12865;51.934;10.330;2023-11-19T10:43:03;98299.47;;;12.03;100.00
24762;BME280;12865;51.934;10.330;2023-11-19T10:45:49;98302.47;;;12.00;100.00
24762;BME280;12865;51.934;10.330;2023-11-19T10:48:35;98296.94;;;12.09;100.00
24762;BME280;12865;51.934;10.330;2023-11-19T10:51:21;98292.72;;;12.15;100.00
24762;BME280;12865;51.934;10.330;2023-11-19T10:54:08;98297.78;;;12.10;100.00
24762;BME280;12865;51.934;10.330;2023-11-19T10:56:58;98297.25;;;12.06;100.00
24762;BME280;12865;51.934;10.330;2023-11-19T10:59:45;98304.13;;;12.01;100.00
24762;BME280;12865;51.934;10.330;2023-11-19T11:02:33;98301.66;;;11.91;100.00
24762;BME280;12865;51.934;10.330;2023-11-19T11:05:21;98287.78;;;11.96;100.00
24762;BME280;12865;51.934;10.330;2023-11-19T11:08:08;98285.09;;;12.04;100.00
24762;BME280;12865;51.934;10.330;2023-11-19T11:10:55;98283.63;;;11.93;100.00
24762;BME280;12865;51.934;10.330;2023-11-19T11:13:42;98276.88;;;12.13;100.00
24762;BME280;12865;51.934;10.330;2023-11-19T11:16:29;98286.25;;;12.09;100.00
24762;BME280;12865;51.934;10.330;2023-11-19T11:19:17;98290.84;;;12.32;100.00
24762;BME280;12865;51.934;10.330;2023-11-19T11:22:05;98277.66;;;12.30;100.00
24762;BME280;12865;51.934;10.330;2023-11-19T11:25:11;98281.69;;;12.26;100.00
24762;BME280;12865;51.934;10.330;2023-11-19T11:40:06;98276.00;;;12.60;100.00
24762;BME280;12865;51.934;10.330;2023-11-19T11:42:55;98282.94;;;12.46;100.00
24762;BME280;12865;51.934;10.330;2023-11-19T11:45:41;98289.78;;;12.41;100.00
24762;BME280;12865;51.934;10.330;2023-11-19T11:48:29;98281.16;;;12.31;100.00
24762;BME280;12865;51.934;10.330;2023-11-19T11:51:16;98282.19;;;12.22;100.00
24762;BME280;12865;51.934;10.330;2023-11-19T11:54:02;98273.06;;;12.47;100.00
24762;BME280;12865;51.934;10.330;2023-11-19T11:59:47;98273.53;;;12.50;100.00
24762;BME280;12865;51.934;10.330;2023-11-19T12:02:34;98267.84;;;12.53;100.00
24762;BME280;12865;51.934;10.330;2023-11-19T12:05:23;98267.16;;;12.59;100.00
24762;BME280;12865;51.934;10.330;2023-11-19T12:08:10;98274.00;;;12.85;100.00
24762;BME280;12865;51.934;10.330;2023-11-19T12:10:58;98258.97;;;12.84;100.00
24762;BME280;12865;51.934;10.330;2023-11-19T12:13:52;98266.25;;;12.90;100.00
24762;BME280;12865;51.934;10.330;2023-11-19T12:16:38;98269.22;;;13.03;100.00
24762;BME280;12865;51.934;10.330;2023-11-19T12:19:25;98265.16;;;13.07;100.00
24762;BME280;12865;51.934;10.330;2023-11-19T12:22:10;98270.84;;;13.04;100.00
24762;BME280;12865;51.934;10.330;2023-11-19T12:24:56;98261.31;;;13.10;100.00
24762;BME280;12865;51.934;10.330;2023-11-19T12:27:47;98263.78;;;13.11;98.35
24762;BME280;12865;51.934;10.330;2023-11-19T12:30:33;98249.09;;;13.07;97.72
24762;BME280;12865;51.934;10.330;2023-11-19T12:33:19;98263.84;;;13.03;98.49
24762;BME280;12865;51.934;10.330;2023-11-19T12:36:06;98257.75;;;13.17;96.41
24762;BME280;12865;51.934;10.330;2023-11-19T12:38:51;98256.78;;;13.10;97.43
24762;BME280;12865;51.934;10.330;2023-11-19T12:41:49;98262.66;;;13.06;99.71
24762;BME280;12865;51.934;10.330;2023-11-19T12:44:35;98251.59;;;12.86;99.29
24762;BME280;12865;51.934;10.330;2023-11-19T12:47:21;98260.16;;;12.81;100.00
24762;BME280;12865;51.934;10.330;2023-11-19T12:50:07;98248.06;;;12.63;100.00
24762;BME280;12865;51.934;10.330;2023-11-19T12:52:57;98253.69;;;12.45;100.00
24762;BME280;12865;51.934;10.330;2023-11-19T12:55:43;98264.84;;;12.48;100.00
24762;BME280;12865;51.934;10.330;2023-11-19T12:58:34;98255.81;;;12.49;100.00
24762;BME280;12865;51.934;10.330;2023-11-19T13:01:20;98257.09;;;12.31;100.00
24762;BME280;12865;51.934;10.330;2023-11-19T13:04:17;98264.75;;;12.34;100.00
24762;BME280;12865;51.934;10.330;2023-11-19T13:07:03;98256.59;;;12.27;100.00
24762;BME280;12865;51.934;10.330;2023-11-19T13:09:49;98243.22;;;12.35;100.00
24762;BME280;12865;51.934;10.330;2023-11-19T13:12:35;98253.91;;;12.35;100.00
24762;BME280;12865;51.934;10.330;2023-11-19T13:15:24;98237.03;;;12.35;100.00
24762;BME280;12865;51.934;10.330;2023-11-19T13:18:12;98219.56;;;12.24;100.00
24762;BME280;12865;51.934;10.330;2023-11-19T13:21:00;98237.03;;;12.35;100.00
24762;BME280;12865;51.934;10.330;2023-11-19T13:23:45;98239.72;;;12.27;100.00
24762;BME280;12865;51.934;10.330;2023-11-19T13:26:31;98238.53;;;12.37;100.00
24762;BME280;12865;51.934;10.330;2023-11-19T13:29:17;98233.06;;;12.31;100.00
24762;BME280;12865;51.934;10.330;2023-11-19T13:32:02;98241.53;;;12.34;100.00
24762;BME280;12865;51.934;10.330;2023-11-19T13:34:49;98238.09;;;12.26;100.00
24762;BME280;12865;51.934;10.330;2023-11-19T13:37:35;98236.63;;;12.15;100.00
24762;BME280;12865;51.934;10.330;2023-11-19T13:40:21;98238.75;;;12.19;100.00
24762;BME280;12865;51.934;10.330;2023-11-19T13:43:07;98239.81;;;12.10;100.00
24762;BME280;12865;51.934;10.330;2023-11-19T13:45:54;98218.16;;;12.05;100.00
24762;BME280;12865;51.934;10.330;2023-11-19T13:48:40;98242.69;;;12.01;100.00
24762;BME280;12865;51.934;10.330;2023-11-19T13:51:26;98235.38;;;11.95;100.00
24762;BME280;12865;51.934;10.330;2023-11-19T13:54:11;98217.84;;;11.92;100.00
24762;BME280;12865;51.934;10.330;2023-11-19T13:56:59;98220.72;;;11.91;100.00
24762;BME280;12865;51.934;10.330;2023-11-19T13:59:46;98233.41;;;11.80;100.00
24762;BME280;12865;51.934;10.330;2023-11-19T14:02:32;98231.44;;;11.74;100.00
24762;BME280;12865;51.934;10.330;2023-11-19T14:05:18;98234.09;;;11.74;100.00
24762;BME280;12865;51.934;10.330;2023-11-19T14:08:07;98240.78;;;11.62;100.00
24762;BME280;12865;51.934;10.330;2023-11-19T14:10:59;98233.09;;;11.67;100.00
24762;BME280;12865;51.934;10.330;2023-11-19T14:13:44;98240.78;;;11.62;100.00
24762;BME280;12865;51.934;10.330;2023-11-19T14:16:32;98249.94;;;11.68;100.00
24762;BME280;12865;51.934;10.330;2023-11-19T14:19:19;98250.09;;;11.66;100.00
24762;BME280;12865;51.934;10.330;2023-11-19T14:22:05;98236.22;;;11.71;100.00
24762;BME280;12865;51.934;10.330;2023-11-19T14:24:52;98234.94;;;11.75;100.00
24762;BME280;12865;51.934;10.330;2023-11-19T14:27:40;98251.09;;;11.65;100.00
24762;BME280;12865;51.934;10.330;2023-11-19T14:30:26;98243.13;;;11.57;100.00
24762;BME280;12865;51.934;10.330;2023-11-19T14:33:12;98248.97;;;11.61;100.00
24762;BME280;12865;51.934;10.330;2023-11-19T14:35:57;98254.81;;;11.48;100.00
24762;BME280;12865;51.934;10.330;2023-11-19T14:38:43;98251.81;;;11.51;100.00
24762;BME280;12865;51.934;10.330;2023-11-19T14:41:29;98258.81;;;11.36;100.00
24762;BME280;12865;51.934;10.330;2023-11-19T14:44:15;98256.50;;;11.33;100.00